• Join FlightAware (Why Join?)
  • Login
  • US Flag 
04:58PM EST


 

Airport Tracker/Info


-or-


 

Live Flight TrackerFlight Track Log ✈ EJA396 ✈ 21-Jul-2013 ✈ KMDW - KSDF

Flight Track Log - Related Links

Times and Time Zones

All times are in EDT time to prevent confusion due to time zone crossing. See the EJA396 flight status page for this flight to view local times or setup timezone preferences in your user account.

Time Position Orientation Groundspeed Altitude Reporting Facility
EDT Latitude Longitude Course Direction KTS MPH feet Rate Location/Type
02:35PM 41.8000 -87.7167 137° Southeast 164 189 2,700  Level Chicago TRACON
02:36PM 41.7697 -87.6792 137° Southeast 199 229 3,000 1,920 Climbing Chicago Center
02:37PM 41.6911 -87.6828 182° South 240 276 6,400 3,780 Climbing Chicago Center
02:38PM 41.6236 -87.6933 187° South 245 282 10,900 3,720 Climbing Chicago Center
02:39PM 41.5389 -87.7064 187° South 309 356 14,200 3,300 Climbing Chicago Center
02:40PM 41.4506 -87.7203 187° South 316 364 17,800 3,120 Climbing Chicago Center
02:41PM 41.3569 -87.7008 171° South 338 389 20,700 2,640 Climbing Chicago Center
02:42PM 41.2608 -87.6772 170° South 348 400 23,300 1,980 Climbing Chicago Center
02:43PM 41.1375 -87.6356 166° South 384 442 24,900 780 Climbing Chicago Center
02:44PM 41.0294 -87.5733 157° South 420 483 25,000  Climbing Chicago Center
02:45PM 40.9153 -87.5081 157° South 446 513 25,000  Level Chicago Center
02:46PM 40.8044 -87.4442 156° South 439 505 25,000  Level Chicago Center
02:47PM 40.6989 -87.3875 158° South 415 478 25,000  Level Chicago Center
02:48PM 40.5822 -87.3214 157° South 384 442 25,000  Level Chicago Center
02:49PM 40.4881 -87.2692 157° South 371 427 25,000  Level Chicago Center
02:50PM 40.3894 -87.2142 157° South 362 417 25,000  Level Chicago Center
02:51PM 40.2989 -87.1633 157° South 356 410 25,000  Level Chicago Center
02:52PM 40.1981 -87.1069 157° South 399 459 25,000  Level Chicago Center
02:53PM 40.1086 -87.0567 157° South 423 487 25,000 -180 Level Indianapolis Center
02:55PM 39.8686 -86.9250 157° South 423 487 24,600 -600 Descending Indianapolis Center
02:56PM 39.7597 -86.8653 157° South 428 493 23,300 -1,320 Descending Indianapolis Center
02:57PM 39.6528 -86.8064 157° South 423 487 21,900 -1,440 Descending Indianapolis Center
02:58PM 39.5489 -86.7497 157° South 413 475 20,400 -1,620 Descending Indianapolis Center
03:00PM 39.4450 -86.6936 157° South 410 472 18,600 -2,040 Descending Indianapolis Center
03:01PM 39.3242 -86.6269 157° South 400 460 16,300 -2,100 Descending Indianapolis Center
03:02PM 39.2267 -86.5753 158° South 386 444 14,300 -1,140 Descending Indianapolis Center
03:03PM 39.1333 -86.5256 158° South 371 427 14,000 -180 Descending Indianapolis Center
03:04PM 39.0369 -86.4736 157° South 376 433 14,000  Level Indianapolis Center
03:05PM 38.9400 -86.4219 157° South 377 434 14,000 -180 Level Indianapolis Center
03:06PM 38.8417 -86.3700 158° South 378 435 13,700 -840 Descending Indianapolis Center
03:07PM 38.7283 -86.3108 158° South 366 421 12,300 -1,200 Descending Indianapolis Center
03:08PM 38.6458 -86.2303 143° Southeast 370 426 11,300 -1,200 Descending Indianapolis Center
03:09PM 38.5703 -86.1475 139° Southeast 359 413 9,900 -1,680 Descending Indianapolis Center
03:10PM 38.5211 -86.0608 126° Southeast 308 354 7,900 -2,220 Descending Indianapolis Center
03:11PM 38.4761 -85.9772 124° Southeast 290 334 5,400 -2,280 Descending Indianapolis Center
03:12PM 38.4308 -85.9003 127° Southeast 278 320 3,300 -1,200 Descending Indianapolis Center
03:13PM 38.3764 -85.8367 138° Southeast 269 310 3,000 -240 Descending Indianapolis Center
03:14PM 38.3231 -85.7789 140° Southeast 260 299 2,900 -300 Descending Indianapolis Center
03:15PM 38.2431 -85.7542 166° South 256 295 2,500 -420 Descending Indianapolis Center
03:18PM 38.1741 -85.7365 142° Southeast  Level Estimated
03:25PM 38.1741 -85.7365 142° Southeast  Level Estimated